createdAt,value
2022-07-26T00:02:20.331Z,19.57
2022-07-26T00:04:46.947Z,19.52
2022-07-26T00:07:13.467Z,19.50
2022-07-26T00:09:41.852Z,19.46
2022-07-26T00:12:11.452Z,19.46
2022-07-26T00:14:37.864Z,19.42
2022-07-26T00:17:05.770Z,19.38
2022-07-26T00:19:32.237Z,19.39
2022-07-26T00:22:33.866Z,19.37
2022-07-26T00:25:01.129Z,19.32
2022-07-26T00:27:27.536Z,19.27
2022-07-26T00:29:53.918Z,19.24
2022-07-26T00:32:20.333Z,19.22
2022-07-26T00:34:46.762Z,19.18
2022-07-26T00:37:16.017Z,19.14
2022-07-26T00:39:46.606Z,19.09
2022-07-26T00:42:14.078Z,19.06
2022-07-26T00:44:43.220Z,19.05
2022-07-26T00:47:09.798Z,19.03
2022-07-26T00:49:36.296Z,19.01
2022-07-26T00:52:05.179Z,18.99
2022-07-26T00:54:31.847Z,18.96
2022-07-26T00:56:58.367Z,18.94
2022-07-26T00:59:25.075Z,18.91
2022-07-26T01:01:51.633Z,18.88
2022-07-26T01:04:18.108Z,18.85
2022-07-26T01:06:44.782Z,18.82
2022-07-26T01:09:11.738Z,18.77
2022-07-26T01:11:38.174Z,18.73
2022-07-26T01:14:04.852Z,18.70
2022-07-26T01:16:31.501Z,18.67
2022-07-26T01:18:58.055Z,18.64
2022-07-26T01:21:29.325Z,18.63
2022-07-26T01:23:55.811Z,18.57
2022-07-26T01:26:22.256Z,18.57
2022-07-26T01:28:52.429Z,18.51
2022-07-26T01:31:19.070Z,18.47
2022-07-26T01:33:45.706Z,18.43
2022-07-26T01:36:12.702Z,18.40
2022-07-26T01:38:40.668Z,18.35
2022-07-26T01:41:07.805Z,18.31
2022-07-26T01:43:34.824Z,18.27
2022-07-26T01:46:01.532Z,18.22
2022-07-26T01:48:28.422Z,18.20
2022-07-26T01:50:56.738Z,18.15
2022-07-26T01:53:23.246Z,18.12
2022-07-26T01:55:49.677Z,18.09
2022-07-26T01:58:16.158Z,18.03
2022-07-26T02:00:42.729Z,17.98
2022-07-26T02:03:09.195Z,17.97
2022-07-26T02:05:35.699Z,17.98
2022-07-26T02:08:02.383Z,17.96
2022-07-26T02:10:47.597Z,17.94
2022-07-26T02:13:14.455Z,17.91
2022-07-26T02:15:41.280Z,17.87
2022-07-26T02:18:07.842Z,17.85
2022-07-26T02:20:34.301Z,17.81
2022-07-26T02:23:01.447Z,17.78
2022-07-26T02:25:28.309Z,17.76
2022-07-26T02:27:54.930Z,17.74
2022-07-26T02:30:21.432Z,17.74
2022-07-26T02:32:47.908Z,17.74
2022-07-26T02:35:14.752Z,17.75
2022-07-26T02:37:43.751Z,17.77
2022-07-26T02:40:15.467Z,17.78
2022-07-26T02:42:45.037Z,17.80
2022-07-26T02:45:11.448Z,17.83
2022-07-26T02:47:48.494Z,17.84
2022-07-26T02:50:20.044Z,17.86
2022-07-26T02:52:48.141Z,17.87
2022-07-26T02:55:16.441Z,17.88
2022-07-26T02:57:46.595Z,17.86
2022-07-26T03:00:16.676Z,17.89
2022-07-26T03:02:43.602Z,17.91
2022-07-26T03:05:10.428Z,17.93
2022-07-26T03:07:36.957Z,17.95
2022-07-26T03:10:04.115Z,17.98
2022-07-26T03:12:30.807Z,18.01
2022-07-26T03:14:57.261Z,18.05
2022-07-26T03:17:23.725Z,18.11
2022-07-26T03:19:50.141Z,18.13
2022-07-26T03:22:16.977Z,18.18
2022-07-26T03:24:43.481Z,18.20
2022-07-26T03:27:09.949Z,18.24
2022-07-26T03:29:36.556Z,18.27
2022-07-26T03:32:03.080Z,18.29
2022-07-26T03:34:29.522Z,18.33
2022-07-26T03:36:55.973Z,18.37
2022-07-26T03:39:22.587Z,18.41
2022-07-26T03:41:49.136Z,18.42
2022-07-26T03:44:15.532Z,18.45
2022-07-26T03:46:42.001Z,18.48
2022-07-26T03:49:10.985Z,18.51
2022-07-26T03:51:41.050Z,18.52
2022-07-26T03:54:07.776Z,18.56
2022-07-26T03:56:34.380Z,18.59
2022-07-26T03:59:04.474Z,18.61
2022-07-26T04:01:31.861Z,18.64
2022-07-26T04:03:58.643Z,18.68
2022-07-26T04:06:25.781Z,18.70
2022-07-26T04:08:53.003Z,18.72
2022-07-26T04:11:19.694Z,18.74
2022-07-26T04:13:46.281Z,18.79
2022-07-26T04:16:13.144Z,18.82
2022-07-26T04:18:39.668Z,18.85
2022-07-26T04:21:06.466Z,18.89
2022-07-26T04:23:32.932Z,18.89
2022-07-26T04:25:59.399Z,18.91
2022-07-26T04:28:28.812Z,18.90
2022-07-26T04:30:57.190Z,18.91
2022-07-26T04:33:23.889Z,18.91
2022-07-26T04:35:50.696Z,18.95
2022-07-26T04:38:17.157Z,18.97
2022-07-26T04:40:43.939Z,19.00
2022-07-26T04:43:15.933Z,19.02
2022-07-26T04:45:43.822Z,19.02
2022-07-26T04:48:10.319Z,19.04
2022-07-26T04:50:36.932Z,19.06
2022-07-26T04:53:03.437Z,19.07
2022-07-26T04:55:30.550Z,19.11
2022-07-26T04:57:57.380Z,19.12
2022-07-26T05:00:25.131Z,19.14
2022-07-26T05:02:57.203Z,19.14
2022-07-26T05:05:25.905Z,19.13
2022-07-26T05:07:55.102Z,19.16
2022-07-26T05:10:22.871Z,19.17
2022-07-26T05:12:49.593Z,19.22
2022-07-26T05:15:16.543Z,19.26
2022-07-26T05:17:43.792Z,19.31
2022-07-26T05:20:14.113Z,19.33
2022-07-26T05:22:41.061Z,19.35
2022-07-26T05:25:08.420Z,19.36
2022-07-26T05:27:35.124Z,19.35
2022-07-26T05:30:02.025Z,19.35
2022-07-26T05:32:28.488Z,19.36
2022-07-26T05:34:54.963Z,19.38
2022-07-26T05:37:21.609Z,19.41
2022-07-26T05:39:48.020Z,19.44
2022-07-26T05:42:14.444Z,19.47
2022-07-26T05:44:42.646Z,19.51
2022-07-26T05:47:09.484Z,19.55
2022-07-26T05:49:39.810Z,19.60
2022-07-26T05:52:07.076Z,19.65
2022-07-26T05:54:33.584Z,19.71
2022-07-26T05:57:00.000Z,19.76
2022-07-26T05:59:26.448Z,19.81
2022-07-26T06:01:56.261Z,19.84
2022-07-26T06:04:25.037Z,19.89
2022-07-26T06:06:54.802Z,19.93
2022-07-26T06:09:22.466Z,20.00
2022-07-26T06:11:48.859Z,20.05
2022-07-26T06:14:15.441Z,20.10
2022-07-26T06:16:42.076Z,20.16
2022-07-26T06:19:08.674Z,20.22
2022-07-26T06:21:35.125Z,20.29
2022-07-26T06:24:01.616Z,20.36
2022-07-26T06:26:28.047Z,20.48
2022-07-26T06:28:54.479Z,20.58
2022-07-26T06:31:21.068Z,20.72
2022-07-26T06:33:47.659Z,20.84
2022-07-26T06:36:14.169Z,20.94
2022-07-26T06:38:40.695Z,21.04
2022-07-26T06:41:07.092Z,21.10
2022-07-26T06:43:33.530Z,21.20
2022-07-26T06:46:00.024Z,21.28
2022-07-26T06:48:26.749Z,21.35
2022-07-26T06:50:53.279Z,21.41
2022-07-26T06:53:19.698Z,21.48
2022-07-26T06:55:46.138Z,21.53
2022-07-26T06:58:12.585Z,21.60
2022-07-26T07:00:39.212Z,21.68
2022-07-26T07:03:05.692Z,21.77
2022-07-26T07:05:32.947Z,21.88
2022-07-26T07:07:59.407Z,21.96
2022-07-26T07:10:26.511Z,22.06
2022-07-26T07:12:52.987Z,22.11
2022-07-26T07:15:19.460Z,22.18
2022-07-26T07:17:45.911Z,22.28
2022-07-26T07:20:13.450Z,22.38
2022-07-26T07:22:39.903Z,22.44
2022-07-26T07:25:06.545Z,22.51
2022-07-26T07:27:33.321Z,22.57
2022-07-26T07:30:00.075Z,22.66
2022-07-26T07:32:26.654Z,22.73
2022-07-26T07:34:55.136Z,22.82
2022-07-26T07:37:21.591Z,22.88
2022-07-26T07:39:48.823Z,22.92
2022-07-26T07:42:17.068Z,22.90
2022-07-26T07:44:43.661Z,22.83
2022-07-26T07:47:10.283Z,22.74
2022-07-26T07:49:36.824Z,22.58
2022-07-26T07:52:03.681Z,22.55
2022-07-26T07:54:30.111Z,22.48
2022-07-26T07:56:56.541Z,22.36
2022-07-26T07:59:23.758Z,22.28
2022-07-26T08:01:50.692Z,22.15
2022-07-26T08:04:17.268Z,22.08
2022-07-26T08:06:50.238Z,22.02
2022-07-26T08:09:18.932Z,21.97
2022-07-26T08:11:45.689Z,21.93
2022-07-26T08:14:17.738Z,21.94
2022-07-26T08:16:44.754Z,21.97
2022-07-26T08:19:11.864Z,22.04
2022-07-26T08:21:38.562Z,22.09
2022-07-26T08:24:06.609Z,22.12
2022-07-26T08:26:33.075Z,22.23
2022-07-26T08:29:00.429Z,22.37
2022-07-26T08:31:28.678Z,22.48
2022-07-26T08:33:55.365Z,22.60
2022-07-26T08:36:21.778Z,22.68
2022-07-26T08:38:48.547Z,22.74
2022-07-26T08:41:18.801Z,22.77
2022-07-26T08:43:52.296Z,22.72
2022-07-26T08:46:26.318Z,22.68
2022-07-26T08:48:54.469Z,22.66
2022-07-26T08:51:23.652Z,22.65
2022-07-26T08:53:53.967Z,22.67
2022-07-26T08:56:20.405Z,22.69
2022-07-26T08:58:46.823Z,22.75
2022-07-26T09:01:13.763Z,22.97
2022-07-26T09:03:42.577Z,23.14
2022-07-26T09:06:16.671Z,23.25
2022-07-26T09:08:44.614Z,23.29
2022-07-26T09:11:26.336Z,23.20
2022-07-26T09:13:56.066Z,23.06
2022-07-26T09:16:22.705Z,23.05
2022-07-26T09:18:49.225Z,23.08
2022-07-26T09:21:33.606Z,23.06
2022-07-26T09:24:00.394Z,23.16
2022-07-26T09:26:28.012Z,23.20
2022-07-26T09:29:12.247Z,23.27
2022-07-26T09:31:39.691Z,23.32
2022-07-26T09:34:07.656Z,23.36
2022-07-26T09:36:50.277Z,23.41
2022-07-26T09:39:16.747Z,23.38
2022-07-26T09:41:43.222Z,23.44
2022-07-26T09:44:30.031Z,23.35
2022-07-26T09:46:58.942Z,23.37
2022-07-26T09:49:30.948Z,23.34
2022-07-26T09:52:18.277Z,23.43
2022-07-26T09:54:46.908Z,23.48
2022-07-26T09:57:16.355Z,23.62
2022-07-26T09:59:43.312Z,23.83
2022-07-26T10:02:10.374Z,24.06
2022-07-26T10:04:36.968Z,24.35
2022-07-26T10:07:03.942Z,24.55
2022-07-26T10:09:37.279Z,24.76
2022-07-26T10:12:08.865Z,24.68
2022-07-26T10:14:38.278Z,24.59
2022-07-26T10:17:31.737Z,24.66
2022-07-26T10:20:04.221Z,24.87
2022-07-26T10:22:41.790Z,24.83
2022-07-26T10:25:31.331Z,25.13
2022-07-26T10:27:58.194Z,25.40
2022-07-26T10:30:33.915Z,25.63
2022-07-26T10:33:10.317Z,25.71
2022-07-26T10:35:44.628Z,25.84
2022-07-26T10:38:17.993Z,25.62
2022-07-26T10:41:06.096Z,25.49
2022-07-26T10:43:42.330Z,25.30
2022-07-26T10:46:18.679Z,25.12
2022-07-26T10:48:58.463Z,24.99
2022-07-26T10:51:34.018Z,24.94
2022-07-26T10:54:13.375Z,24.93
2022-07-26T10:56:40.594Z,24.85
2022-07-26T10:59:07.448Z,24.79
2022-07-26T11:01:35.851Z,24.66
2022-07-26T11:04:02.497Z,24.62
2022-07-26T11:06:30.332Z,24.52
2022-07-26T11:08:56.825Z,24.36
2022-07-26T11:11:29.559Z,24.24
2022-07-26T11:14:09.642Z,23.98
2022-07-26T11:16:44.575Z,23.63
2022-07-26T11:19:15.413Z,23.50
2022-07-26T11:21:42.561Z,23.33
2022-07-26T11:24:09.715Z,23.13
2022-07-26T11:26:43.693Z,23.07
2022-07-26T11:29:10.744Z,23.01
2022-07-26T11:31:51.406Z,22.97
2022-07-26T11:34:34.996Z,22.92
2022-07-26T11:37:04.161Z,22.91
2022-07-26T11:39:33.202Z,22.86
2022-07-26T11:42:08.192Z,22.87
2022-07-26T11:44:35.798Z,22.88
2022-07-26T11:47:15.902Z,22.93
2022-07-26T11:50:00.120Z,22.96
2022-07-26T11:52:31.280Z,23.05
2022-07-26T11:54:57.786Z,23.13
2022-07-26T11:57:29.500Z,23.26
2022-07-26T11:59:56.028Z,23.38
2022-07-26T12:02:22.873Z,23.54
2022-07-26T12:04:49.933Z,23.72
2022-07-26T12:07:20.110Z,23.99
2022-07-26T12:09:47.873Z,24.23
2022-07-26T12:12:25.162Z,24.50
2022-07-26T12:15:00.982Z,24.98
2022-07-26T12:17:35.239Z,25.43
2022-07-26T12:20:17.855Z,26.04
2022-07-26T12:22:56.061Z,26.56
2022-07-26T12:25:27.245Z,26.83
2022-07-26T12:27:53.955Z,27.10
2022-07-26T12:30:20.971Z,27.37
2022-07-26T12:32:51.478Z,27.64
2022-07-26T12:35:27.829Z,27.73
2022-07-26T12:37:54.364Z,28.02
2022-07-26T12:40:28.919Z,28.34
2022-07-26T12:43:01.040Z,28.50
2022-07-26T12:45:31.457Z,28.84
2022-07-26T12:47:59.897Z,29.10
2022-07-26T12:50:27.943Z,29.46
2022-07-26T12:53:05.982Z,29.75
2022-07-26T12:55:33.025Z,29.75
2022-07-26T12:57:59.965Z,29.48
2022-07-26T13:00:28.601Z,28.98
2022-07-26T13:02:56.293Z,28.42
2022-07-26T13:05:22.994Z,27.81
2022-07-26T13:07:51.491Z,27.06
2022-07-26T13:10:34.989Z,26.51
2022-07-26T13:13:02.252Z,26.26
2022-07-26T13:15:36.839Z,26.08
2022-07-26T13:18:06.728Z,25.99
2022-07-26T13:20:33.181Z,25.97
2022-07-26T13:22:59.571Z,25.78
2022-07-26T13:25:26.090Z,25.66
2022-07-26T13:27:58.206Z,25.58
2022-07-26T13:30:24.699Z,25.36
2022-07-26T13:32:51.579Z,25.18
2022-07-26T13:35:18.092Z,25.04
2022-07-26T13:37:44.475Z,24.93
2022-07-26T13:40:11.425Z,24.90
2022-07-26T13:42:38.156Z,24.96
2022-07-26T13:45:06.592Z,24.92
2022-07-26T13:47:32.990Z,24.95
2022-07-26T13:49:59.453Z,25.06
2022-07-26T13:52:25.894Z,25.42
2022-07-26T13:54:53.045Z,25.65
2022-07-26T13:57:19.451Z,25.68
2022-07-26T13:59:45.884Z,25.87
2022-07-26T14:02:12.426Z,25.94
2022-07-26T14:04:38.979Z,26.32
2022-07-26T14:07:05.409Z,26.90
2022-07-26T14:09:32.677Z,27.44
2022-07-26T14:11:59.188Z,27.91
2022-07-26T14:14:25.621Z,28.00
2022-07-26T14:16:52.032Z,28.28
2022-07-26T14:19:18.576Z,28.49
2022-07-26T14:21:47.488Z,28.77
2022-07-26T14:24:26.400Z,29.23
2022-07-26T14:26:58.294Z,29.66
2022-07-26T14:29:25.889Z,30.09
2022-07-26T14:31:52.433Z,30.46
2022-07-26T14:34:18.932Z,30.56
2022-07-26T14:36:45.440Z,30.80
2022-07-26T14:39:11.905Z,30.76
2022-07-26T14:41:38.369Z,30.75
2022-07-26T14:44:05.036Z,30.80
2022-07-26T14:46:31.541Z,30.90
2022-07-26T14:48:58.130Z,30.59
2022-07-26T14:51:24.686Z,29.94
2022-07-26T14:53:51.081Z,29.21
2022-07-26T14:56:17.589Z,28.86
2022-07-26T14:58:44.014Z,28.64
2022-07-26T15:01:11.121Z,28.33
2022-07-26T15:03:37.583Z,27.99
2022-07-26T15:06:04.175Z,28.05
2022-07-26T15:08:30.690Z,28.03
2022-07-26T15:10:57.487Z,27.96
2022-07-26T15:13:24.056Z,27.82
2022-07-26T15:15:50.673Z,27.75
2022-07-26T15:18:17.209Z,27.64
2022-07-26T15:20:43.706Z,27.52
2022-07-26T15:23:12.047Z,27.46
2022-07-26T15:25:38.614Z,27.32
2022-07-26T15:28:05.188Z,27.28
2022-07-26T15:30:32.722Z,27.27
2022-07-26T15:33:01.835Z,27.33
2022-07-26T15:35:29.927Z,27.45
2022-07-26T15:37:56.938Z,27.99
2022-07-26T15:40:23.438Z,28.60
2022-07-26T15:42:52.200Z,29.12
2022-07-26T15:45:20.216Z,29.41
2022-07-26T15:48:01.319Z,29.62
2022-07-26T15:50:34.951Z,29.79
2022-07-26T15:53:01.416Z,29.55
2022-07-26T15:55:28.127Z,29.31
2022-07-26T15:57:54.694Z,29.12
2022-07-26T16:00:21.393Z,28.77
2022-07-26T16:02:47.943Z,28.36
2022-07-26T16:05:14.836Z,28.03
2022-07-26T16:07:41.863Z,27.83
2022-07-26T16:10:10.515Z,27.54
2022-07-26T16:12:36.985Z,27.29
2022-07-26T16:15:04.864Z,26.77
2022-07-26T16:17:31.539Z,26.57
2022-07-26T16:19:58.010Z,26.33
2022-07-26T16:22:24.571Z,26.05
2022-07-26T16:24:51.160Z,25.99
2022-07-26T16:27:17.604Z,25.90
2022-07-26T16:29:44.704Z,25.82
2022-07-26T16:32:13.288Z,25.78
2022-07-26T16:34:39.806Z,25.71
2022-07-26T16:37:06.362Z,25.61
2022-07-26T16:39:32.747Z,25.57
2022-07-26T16:42:04.569Z,25.55
2022-07-26T16:44:33.191Z,25.46
2022-07-26T16:46:59.749Z,25.42
2022-07-26T16:49:26.299Z,25.41
2022-07-26T16:51:52.810Z,25.42
2022-07-26T16:54:19.256Z,25.44
2022-07-26T16:56:45.782Z,25.48
2022-07-26T16:59:12.540Z,25.53
2022-07-26T17:01:39.234Z,25.55
2022-07-26T17:04:05.931Z,25.56
2022-07-26T17:06:32.405Z,25.54
2022-07-26T17:08:58.792Z,25.49
2022-07-26T17:11:25.245Z,25.38
2022-07-26T17:13:53.383Z,25.32
2022-07-26T17:16:24.207Z,25.26
2022-07-26T17:18:51.628Z,25.23
2022-07-26T17:21:18.154Z,25.14
2022-07-26T17:23:44.594Z,25.10
2022-07-26T17:26:11.138Z,24.99
2022-07-26T17:28:37.557Z,24.94
2022-07-26T17:31:03.990Z,24.92
2022-07-26T17:33:30.431Z,24.89
2022-07-26T17:36:02.133Z,24.86
2022-07-26T17:38:31.057Z,24.84
2022-07-26T17:40:57.507Z,24.81
2022-07-26T17:43:25.195Z,24.73
2022-07-26T17:46:03.558Z,24.66
2022-07-26T17:48:30.103Z,24.64
2022-07-26T17:50:56.560Z,24.62
2022-07-26T17:53:34.740Z,24.58
2022-07-26T17:56:02.102Z,24.51
2022-07-26T17:58:28.537Z,24.48
2022-07-26T18:00:55.102Z,24.42
2022-07-26T18:03:23.075Z,24.35
2022-07-26T18:05:50.608Z,24.30
2022-07-26T18:08:17.456Z,24.25
2022-07-26T18:10:48.949Z,24.19
2022-07-26T18:13:17.767Z,24.11
2022-07-26T18:15:44.300Z,24.01
2022-07-26T18:18:11.022Z,23.95
2022-07-26T18:20:37.613Z,23.88
2022-07-26T18:23:04.077Z,23.77
2022-07-26T18:25:30.530Z,23.71
2022-07-26T18:27:57.022Z,23.66
2022-07-26T18:30:23.475Z,23.63
2022-07-26T18:32:49.989Z,23.56
2022-07-26T18:35:16.793Z,23.49
2022-07-26T18:37:43.271Z,23.44
2022-07-26T18:40:09.973Z,23.40
2022-07-26T18:42:36.742Z,23.35
2022-07-26T18:45:04.701Z,23.32
2022-07-26T18:47:31.159Z,23.27
2022-07-26T18:49:57.665Z,23.24
2022-07-26T18:52:32.132Z,23.20
2022-07-26T18:55:01.266Z,23.16
2022-07-26T18:57:27.753Z,23.12
2022-07-26T18:59:54.187Z,23.08
2022-07-26T19:02:20.637Z,23.06
2022-07-26T19:04:47.051Z,23.01
2022-07-26T19:07:13.506Z,22.98
2022-07-26T19:09:39.940Z,22.94
2022-07-26T19:12:06.685Z,22.91
2022-07-26T19:14:33.192Z,22.85
2022-07-26T19:16:59.653Z,22.83
2022-07-26T19:19:26.065Z,22.79
2022-07-26T19:21:52.510Z,22.80
2022-07-26T19:24:18.938Z,22.76
2022-07-26T19:26:45.499Z,22.73
2022-07-26T19:29:12.357Z,22.72
2022-07-26T19:31:40.639Z,22.71
2022-07-26T19:34:07.236Z,22.67
2022-07-26T19:36:33.872Z,22.66
2022-07-26T19:39:01.226Z,22.64
2022-07-26T19:41:27.903Z,22.62
2022-07-26T19:43:54.417Z,22.58
2022-07-26T19:46:20.947Z,22.55
2022-07-26T19:48:47.484Z,22.51
2022-07-26T19:51:14.021Z,22.47
2022-07-26T19:53:40.482Z,22.45
2022-07-26T19:56:07.870Z,22.42
2022-07-26T19:58:34.443Z,22.40
2022-07-26T20:01:01.076Z,22.36
2022-07-26T20:03:27.603Z,22.32
2022-07-26T20:05:55.623Z,22.28
2022-07-26T20:08:22.458Z,22.26
2022-07-26T20:10:48.880Z,22.22
2022-07-26T20:13:15.340Z,22.20
2022-07-26T20:15:42.381Z,22.15
2022-07-26T20:18:10.194Z,22.12
2022-07-26T20:20:36.921Z,22.08
2022-07-26T20:23:05.919Z,22.03
2022-07-26T20:25:32.737Z,21.99
2022-07-26T20:28:00.100Z,21.93
2022-07-26T20:30:26.564Z,21.88
2022-07-26T20:32:53.123Z,21.83
2022-07-26T20:35:19.675Z,21.79
2022-07-26T20:37:46.109Z,21.74
2022-07-26T20:40:13.392Z,21.71
2022-07-26T20:42:44.464Z,21.68
2022-07-26T20:45:12.877Z,21.65
2022-07-26T20:47:43.043Z,21.63
2022-07-26T20:50:11.061Z,21.61
2022-07-26T20:52:38.453Z,21.58
2022-07-26T20:55:05.588Z,21.56
2022-07-26T20:57:32.050Z,21.53
2022-07-26T20:59:58.472Z,21.49
2022-07-26T21:02:25.163Z,21.45
2022-07-26T21:04:51.717Z,21.43
2022-07-26T21:07:18.244Z,21.39
2022-07-26T21:09:44.965Z,21.36
2022-07-26T21:12:11.448Z,21.31
2022-07-26T21:14:37.860Z,21.25
2022-07-26T21:17:09.329Z,21.17
2022-07-26T21:19:37.917Z,21.12
2022-07-26T21:22:04.329Z,21.08
2022-07-26T21:24:30.769Z,21.03
2022-07-26T21:26:57.261Z,20.98
2022-07-26T21:29:23.725Z,20.92
2022-07-26T21:31:50.160Z,20.87
2022-07-26T21:34:16.690Z,20.85
2022-07-26T21:36:43.208Z,20.82
2022-07-26T21:39:10.138Z,20.78
2022-07-26T21:41:36.911Z,20.75
2022-07-26T21:44:04.244Z,20.69
2022-07-26T21:46:31.042Z,20.64
2022-07-26T21:48:57.898Z,20.62
2022-07-26T21:51:24.324Z,20.59
2022-07-26T21:53:50.750Z,20.58
2022-07-26T21:56:17.360Z,20.57
2022-07-26T21:58:43.805Z,20.56
2022-07-26T22:01:12.514Z,20.56
2022-07-26T22:03:40.512Z,20.57
2022-07-26T22:06:08.130Z,20.53
2022-07-26T22:08:35.693Z,20.51
2022-07-26T22:11:02.590Z,20.50
2022-07-26T22:13:28.995Z,20.46
2022-07-26T22:15:55.428Z,20.42
2022-07-26T22:18:21.937Z,20.36
2022-07-26T22:20:49.691Z,20.33
2022-07-26T22:23:17.428Z,20.31
2022-07-26T22:25:44.167Z,20.30
2022-07-26T22:28:11.961Z,20.27
2022-07-26T22:30:44.141Z,20.26
2022-07-26T22:33:11.776Z,20.26
2022-07-26T22:35:38.707Z,20.25
2022-07-26T22:38:07.746Z,20.24
2022-07-26T22:40:35.233Z,20.26
2022-07-26T22:43:02.280Z,20.28
2022-07-26T22:45:30.582Z,20.29
2022-07-26T22:47:57.737Z,20.30
2022-07-26T22:50:25.103Z,20.29
2022-07-26T22:52:51.977Z,20.29
2022-07-26T22:55:18.511Z,20.31
2022-07-26T22:57:45.553Z,20.31
2022-07-26T23:00:17.084Z,20.31
2022-07-26T23:02:44.003Z,20.33
2022-07-26T23:05:11.544Z,20.31
2022-07-26T23:07:38.920Z,20.31
2022-07-26T23:10:09.076Z,20.31
2022-07-26T23:12:36.372Z,20.28
2022-07-26T23:15:05.075Z,20.25
2022-07-26T23:17:31.788Z,20.23
2022-07-26T23:19:58.461Z,20.20
2022-07-26T23:22:24.964Z,20.20
2022-07-26T23:24:51.372Z,20.19
2022-07-26T23:27:20.168Z,20.16
2022-07-26T23:29:48.339Z,20.13
2022-07-26T23:32:16.032Z,20.11
2022-07-26T23:34:42.905Z,20.09
2022-07-26T23:37:10.028Z,20.09
2022-07-26T23:39:36.971Z,20.08
2022-07-26T23:42:03.470Z,20.10
2022-07-26T23:44:30.995Z,20.11
2022-07-26T23:46:58.541Z,20.09
2022-07-26T23:49:25.212Z,20.07
2022-07-26T23:51:52.014Z,20.06
2022-07-26T23:54:18.535Z,20.06
2022-07-26T23:56:45.594Z,20.01
2022-07-26T23:59:13.289Z,20.01
